Time;durP1;ratioP1;P1;durP2;ratioP2;P2;SDS_P1;SDS_P2;PMS_P1;PMS_P2;Temp;Humidity;BMP_temperature;BMP_pressure;BME280_temperature;BME280_humidity;BME280_pressure;Samples;Min_cycle;Max_cycle;Signal;HPM_P1;HPM_P2
2024/04/18 00:03:33;;;;;;;;;;;2.80;99.90;;;;;;8586807;27;19939;-84
2024/04/18 00:07:33;;;;;;;;;;;2.80;99.90;;;;;;8572071;27;19998;-85
2024/04/18 00:11:33;;;;;;;;;;;2.70;99.90;;;;;;8601660;27;20262;-85
2024/04/18 00:15:34;;;;;;;;;;;2.70;99.90;;;;;;8585066;27;20396;-85
2024/04/18 00:19:34;;;;;;;;;;;2.80;99.90;;;;;;8560155;27;19961;-85
2024/04/18 00:23:35;;;;;;;;;;;2.80;99.90;;;;;;8584601;27;19980;-85
2024/04/18 00:27:35;;;;;;;;;;;2.80;99.90;;;;;;8580214;27;19932;-85
2024/04/18 00:31:36;;;;;;;;;;;3.10;99.90;;;;;;8601125;27;19936;-82
2024/04/18 00:35:37;;;;;;;;;;;3.30;99.90;;;;;;8578355;27;19928;-83
2024/04/18 00:39:38;;;;;;;;;;;3.20;99.90;;;;;;8563999;27;19937;-82
2024/04/18 00:43:38;;;;;;;;;;;3.20;99.90;;;;;;8602628;27;19960;-82
2024/04/18 00:47:39;;;;;;;;;;;3.00;99.90;;;;;;8593047;27;19928;-81
2024/04/18 00:51:39;;;;;;;;;;;2.90;99.90;;;;;;8579503;27;19999;-83
2024/04/18 00:55:40;;;;;;;;;;;3.10;99.90;;;;;;8560357;27;19939;-82
2024/04/18 00:59:42;;;;;;;;;;;3.20;99.90;;;;;;8570988;27;19935;-83
2024/04/18 01:03:44;;;;;;;;;;;3.10;99.90;;;;;;8595988;27;19929;-83
2024/04/18 01:07:44;;;;;;;;;;;3.10;99.90;;;;;;8596606;27;19996;-80
2024/04/18 01:11:45;;;;;;;;;;;2.90;99.90;;;;;;8607431;27;20341;-82
2024/04/18 01:15:45;;;;;;;;;;;2.80;99.90;;;;;;8595333;27;19939;-82
2024/04/18 01:19:46;;;;;;;;;;;3.10;99.90;;;;;;8580497;27;19946;-81
2024/04/18 01:23:46;;;;;;;;;;;3.00;99.90;;;;;;8561282;27;19929;-84
2024/04/18 01:27:47;;;;;;;;;;;3.00;99.90;;;;;;8594768;27;19949;-82
2024/04/18 01:31:47;;;;;;;;;;;3.30;99.90;;;;;;8584156;27;20004;-83
2024/04/18 01:35:47;;;;;;;;;;;3.10;99.90;;;;;;8590921;27;20626;-83
2024/04/18 01:39:49;;;;;;;;;;;2.80;99.90;;;;;;8593230;27;19929;-83
2024/04/18 01:43:50;;;;;;;;;;;2.90;99.90;;;;;;8612838;27;19936;-82
2024/04/18 01:47:50;;;;;;;;;;;2.80;99.90;;;;;;8593958;27;20281;-83
2024/04/18 01:51:50;;;;;;;;;;;3.10;99.90;;;;;;8557028;27;19968;-83
2024/04/18 01:55:51;;;;;;;;;;;3.00;99.90;;;;;;8582524;27;19968;-83
2024/04/18 01:59:51;;;;;;;;;;;3.10;99.90;;;;;;8575451;27;20389;-83
2024/04/18 02:03:52;;;;;;;;;;;3.20;99.90;;;;;;8593414;27;19936;-83
2024/04/18 02:07:52;;;;;;;;;;;3.10;99.90;;;;;;8600198;27;19968;-83
2024/04/18 02:11:53;;;;;;;;;;;3.10;99.90;;;;;;8576164;27;20522;-83
2024/04/18 02:15:53;;;;;;;;;;;2.80;99.90;;;;;;8599212;27;20472;-84
2024/04/18 02:19:54;;;;;;;;;;;2.50;99.90;;;;;;8606434;27;20380;-82
2024/04/18 02:23:54;;;;;;;;;;;2.80;99.90;;;;;;8594261;27;19928;-83
2024/04/18 02:27:54;;;;;;;;;;;2.80;99.90;;;;;;8603640;27;19940;-84
2024/04/18 02:31:55;;;;;;;;;;;2.50;99.90;;;;;;8585987;27;19936;-83
2024/04/18 02:35:55;;;;;;;;;;;2.70;99.90;;;;;;8557541;27;19934;-83
2024/04/18 02:39:56;;;;;;;;;;;2.50;99.90;;;;;;8563237;27;19932;-83
2024/04/18 02:43:56;;;;;;;;;;;2.90;99.90;;;;;;8601249;27;19999;-83
2024/04/18 02:47:57;;;;;;;;;;;2.80;99.90;;;;;;8595973;27;19948;-82
2024/04/18 02:51:57;;;;;;;;;;;2.40;99.90;;;;;;8642103;27;19940;-81
2024/04/18 02:55:58;;;;;;;;;;;2.30;99.90;;;;;;8633605;27;19943;-82
2024/04/18 02:59:59;;;;;;;;;;;2.40;99.90;;;;;;8591715;27;19936;-83
2024/04/18 03:03:59;;;;;;;;;;;2.60;99.90;;;;;;8576227;27;20263;-84
2024/04/18 03:08:00;;;;;;;;;;;2.60;99.90;;;;;;8599214;27;19928;-84
2024/04/18 03:12:00;;;;;;;;;;;2.70;99.90;;;;;;8568912;27;19928;-83
2024/04/18 03:16:01;;;;;;;;;;;2.70;99.90;;;;;;8597978;27;19936;-83
2024/04/18 03:20:01;;;;;;;;;;;2.90;99.90;;;;;;8610534;27;19928;-83
2024/04/18 03:24:03;;;;;;;;;;;3.20;99.90;;;;;;8579429;27;19948;-83
2024/04/18 03:28:03;;;;;;;;;;;3.00;99.90;;;;;;8578569;27;19964;-84
2024/04/18 03:32:04;;;;;;;;;;;3.20;99.90;;;;;;8577379;27;19935;-83
2024/04/18 03:36:05;;;;;;;;;;;3.10;99.90;;;;;;8562194;27;19928;-83
2024/04/18 03:40:06;;;;;;;;;;;3.00;99.90;;;;;;8579050;27;20277;-83
2024/04/18 03:44:09;;;;;;;;;;;2.90;99.90;;;;;;8622333;27;19928;-83
2024/04/18 03:48:10;;;;;;;;;;;2.80;99.90;;;;;;8559438;27;20438;-83
2024/04/18 03:52:10;;;;;;;;;;;3.10;99.90;;;;;;8592581;27;19928;-83
2024/04/18 03:56:11;;;;;;;;;;;3.10;99.90;;;;;;8592707;27;19928;-83
2024/04/18 04:00:11;;;;;;;;;;;3.00;99.90;;;;;;8606083;27;20000;-83
2024/04/18 04:04:12;;;;;;;;;;;3.00;99.90;;;;;;8604276;27;19960;-84
2024/04/18 04:08:12;;;;;;;;;;;3.10;99.90;;;;;;8601064;27;19928;-83
2024/04/18 04:12:13;;;;;;;;;;;3.00;99.90;;;;;;8576281;27;19935;-83
2024/04/18 04:16:13;;;;;;;;;;;2.90;99.90;;;;;;8583910;27;19928;-83
2024/04/18 04:20:14;;;;;;;;;;;3.10;99.90;;;;;;8578214;27;19944;-83
2024/04/18 04:24:14;;;;;;;;;;;3.10;99.90;;;;;;8622671;27;19928;-83
2024/04/18 04:28:15;;;;;;;;;;;3.10;99.90;;;;;;8603020;27;19935;-83
2024/04/18 04:32:22;;;;;;;;;;;3.10;99.90;;;;;;8564890;27;19943;-83
2024/04/18 04:36:22;;;;;;;;;;;3.00;99.90;;;;;;8587818;27;19928;-83
2024/04/18 04:40:23;;;;;;;;;;;3.00;99.90;;;;;;8581576;27;19928;-83
2024/04/18 04:44:23;;;;;;;;;;;3.10;99.90;;;;;;8597386;27;19928;-83
2024/04/18 04:48:24;;;;;;;;;;;2.90;99.90;;;;;;8589291;27;20635;-83
2024/04/18 04:52:24;;;;;;;;;;;3.10;99.90;;;;;;8601609;27;19936;-82
2024/04/18 04:56:25;;;;;;;;;;;3.20;99.90;;;;;;8613273;27;19929;-83
2024/04/18 05:00:25;;;;;;;;;;;3.10;99.90;;;;;;8589183;27;19928;-83
2024/04/18 05:04:26;;;;;;;;;;;3.20;99.90;;;;;;8595709;27;19929;-83
2024/04/18 05:08:26;;;;;;;;;;;3.20;99.90;;;;;;8602994;27;19947;-83
2024/04/18 05:12:26;;;;;;;;;;;3.30;99.90;;;;;;8587630;27;19928;-83
2024/04/18 05:16:27;;;;;;;;;;;3.30;99.90;;;;;;8601033;27;19928;-83
2024/04/18 05:20:27;;;;;;;;;;;3.40;99.90;;;;;;8604383;27;19928;-84
2024/04/18 05:24:28;;;;;;;;;;;3.30;99.90;;;;;;8573934;27;20361;-83
2024/04/18 05:28:40;;;;;;;;;;;3.50;99.90;;;;;;8569549;27;20468;-83
2024/04/18 05:32:41;;;;;;;;;;;3.50;99.90;;;;;;8589144;27;20159;-83
2024/04/18 05:36:45;;;;;;;;;;;3.90;99.90;;;;;;8622822;27;19928;-83
2024/04/18 05:40:46;;;;;;;;;;;3.90;99.90;;;;;;8579948;27;19934;-82
2024/04/18 05:44:46;;;;;;;;;;;4.00;99.90;;;;;;8616612;27;19952;-83
2024/04/18 05:48:47;;;;;;;;;;;3.80;99.90;;;;;;8588090;27;19929;-83
2024/04/18 05:52:47;;;;;;;;;;;3.60;99.90;;;;;;8599490;27;20336;-83
2024/04/18 05:56:48;;;;;;;;;;;3.50;99.90;;;;;;8606070;27;19956;-83
2024/04/18 06:00:48;;;;;;;;;;;3.20;99.90;;;;;;8587379;27;19929;-82
2024/04/18 06:04:48;;;;;;;;;;;3.00;99.90;;;;;;8601708;27;19928;-82
2024/04/18 06:08:51;;;;;;;;;;;2.80;99.90;;;;;;8573733;27;19954;-83
2024/04/18 06:12:52;;;;;;;;;;;2.80;99.90;;;;;;8587705;27;19928;-83
2024/04/18 06:16:53;;;;;;;;;;;2.90;99.90;;;;;;8604471;27;19928;-83
2024/04/18 06:20:53;;;;;;;;;;;2.90;99.90;;;;;;8582934;27;20000;-84
2024/04/18 06:24:53;;;;;;;;;;;3.00;99.90;;;;;;8576925;27;19935;-84
2024/04/18 06:28:54;;;;;;;;;;;3.40;99.90;;;;;;8587379;27;19944;-84
2024/04/18 06:32:54;;;;;;;;;;;3.50;99.90;;;;;;8575553;27;19928;-84
2024/04/18 06:36:55;;;;;;;;;;;3.50;99.90;;;;;;8606237;27;19935;-84
2024/04/18 06:40:55;;;;;;;;;;;3.70;99.90;;;;;;8605755;27;20000;-83
2024/04/18 06:44:56;;;;;;;;;;;4.00;99.90;;;;;;8593361;27;19935;-82
2024/04/18 06:48:56;;;;;;;;;;;4.00;99.90;;;;;;8565882;27;19928;-83
2024/04/18 06:52:57;;;;;;;;;;;4.20;99.90;;;;;;8615129;27;19935;-84
2024/04/18 06:56:57;;;;;;;;;;;4.30;99.90;;;;;;8609904;27;19943;-84
2024/04/18 07:00:57;;;;;;;;;;;4.50;99.90;;;;;;8563903;27;19928;-84
2024/04/18 07:04:58;;;;;;;;;;;4.80;99.90;;;;;;8591465;27;19940;-83
2024/04/18 07:08:58;;;;;;;;;;;5.30;99.90;;;;;;8609643;27;19940;-84
2024/04/18 07:12:59;;;;;;;;;;;5.60;99.90;;;;;;8613319;27;19939;-84
2024/04/18 07:16:59;;;;;;;;;;;5.70;99.90;;;;;;8583778;27;20464;-82
2024/04/18 07:21:00;;;;;;;;;;;5.70;99.90;;;;;;8584782;27;19929;-83
2024/04/18 07:25:00;;;;;;;;;;;6.00;99.90;;;;;;8611875;27;20000;-84
2024/04/18 07:29:01;;;;;;;;;;;6.40;99.90;;;;;;8605995;27;20243;-84
2024/04/18 07:33:01;;;;;;;;;;;6.90;99.90;;;;;;8612294;27;20265;-84
2024/04/18 07:37:02;;;;;;;;;;;7.90;99.90;;;;;;8569262;27;19928;-83
2024/04/18 07:41:02;;;;;;;;;;;7.60;99.90;;;;;;8589891;27;19934;-83
2024/04/18 07:45:03;;;;;;;;;;;7.10;99.90;;;;;;8591714;27;20385;-84
2024/04/18 07:49:03;;;;;;;;;;;6.50;99.90;;;;;;8587645;27;19939;-84
2024/04/18 07:53:04;;;;;;;;;;;6.20;99.90;;;;;;8609993;27;19935;-84
2024/04/18 07:57:04;;;;;;;;;;;6.10;99.90;;;;;;8610825;27;20003;-84
2024/04/18 08:01:05;;;;;;;;;;;6.50;99.90;;;;;;8597053;27;19935;-83
2024/04/18 08:05:05;;;;;;;;;;;7.00;99.90;;;;;;8602670;27;19960;-82
2024/04/18 08:09:06;;;;;;;;;;;6.60;99.90;;;;;;8610630;27;20015;-83
2024/04/18 08:13:06;;;;;;;;;;;6.10;99.90;;;;;;8624081;27;19977;-83
2024/04/18 08:17:07;;;;;;;;;;;5.80;99.90;;;;;;8620116;27;19935;-83
2024/04/18 08:21:07;;;;;;;;;;;5.80;99.90;;;;;;8621610;27;19935;-83
2024/04/18 08:25:08;;;;;;;;;;;6.10;99.90;;;;;;8610462;27;19929;-84
2024/04/18 08:29:08;;;;;;;;;;;6.50;99.90;;;;;;8605544;27;19928;-84
2024/04/18 08:33:08;;;;;;;;;;;7.20;99.90;;;;;;8578768;27;19947;-83
2024/04/18 08:37:09;;;;;;;;;;;7.20;99.90;;;;;;8590971;27;20374;-84
2024/04/18 08:41:12;;;;;;;;;;;7.00;99.90;;;;;;8573855;27;19940;-84
2024/04/18 08:45:13;;;;;;;;;;;7.30;99.90;;;;;;8580401;27;19928;-83
2024/04/18 08:49:14;;;;;;;;;;;7.50;99.90;;;;;;8604482;27;19985;-83
2024/04/18 08:53:14;;;;;;;;;;;8.30;99.90;;;;;;8602145;27;19940;-83
2024/04/18 08:57:18;;;;;;;;;;;7.50;99.90;;;;;;8586045;27;20254;-85
2024/04/18 09:01:19;;;;;;;;;;;6.90;99.90;;;;;;8572705;27;19939;-85
2024/04/18 09:05:20;;;;;;;;;;;6.50;99.90;;;;;;8582618;27;19929;-84
2024/04/18 09:09:22;;;;;;;;;;;6.30;99.90;;;;;;8577705;27;20362;-85
2024/04/18 09:13:22;;;;;;;;;;;6.10;99.90;;;;;;8594199;27;20282;-85
2024/04/18 09:17:22;;;;;;;;;;;6.60;99.90;;;;;;8597341;27;19949;-84
2024/04/18 09:21:26;;;;;;;;;;;7.70;99.90;;;;;;8611687;27;19996;-85
2024/04/18 09:25:27;;;;;;;;;;;8.10;99.90;;;;;;8574958;27;19934;-84
2024/04/18 09:29:27;;;;;;;;;;;8.50;99.90;;;;;;8603364;27;19932;-84
2024/04/18 09:33:28;;;;;;;;;;;8.80;99.90;;;;;;8610291;27;19928;-84
2024/04/18 09:37:29;;;;;;;;;;;7.90;99.90;;;;;;8584249;27;19928;-82
2024/04/18 09:41:30;;;;;;;;;;;7.60;99.90;;;;;;8603664;27;20309;-83
2024/04/18 09:45:39;;;;;;;;;;;7.20;99.90;;;;;;8585536;27;19928;-83
2024/04/18 09:49:40;;;;;;;;;;;6.70;99.90;;;;;;8589342;27;20290;-82
2024/04/18 09:53:41;;;;;;;;;;;6.10;99.90;;;;;;8577533;27;19928;-83
2024/04/18 09:57:42;;;;;;;;;;;6.00;99.90;;;;;;8608439;27;19928;-83
2024/04/18 10:01:43;;;;;;;;;;;6.20;99.90;;;;;;8594454;27;19932;-83
2024/04/18 10:05:48;;;;;;;;;;;6.30;99.90;;;;;;8604444;27;19940;-84
2024/04/18 10:09:50;;;;;;;;;;;6.30;99.90;;;;;;8586252;27;19938;-84
2024/04/18 10:13:50;;;;;;;;;;;6.70;99.90;;;;;;8598056;27;20025;-84
2024/04/18 10:17:51;;;;;;;;;;;6.60;99.90;;;;;;8595802;27;19933;-84
2024/04/18 10:21:54;;;;;;;;;;;6.60;99.90;;;;;;8597183;27;20308;-85
2024/04/18 10:25:58;;;;;;;;;;;7.00;99.90;;;;;;8614127;27;19928;-85
2024/04/18 10:29:59;;;;;;;;;;;7.50;99.90;;;;;;8580004;27;19928;-85
2024/04/18 10:34:00;;;;;;;;;;;8.00;99.90;;;;;;8584042;27;20394;-84
2024/04/18 10:38:02;;;;;;;;;;;8.30;99.90;;;;;;8589813;27;20382;-84
2024/04/18 10:42:07;;;;;;;;;;;8.30;99.90;;;;;;8586970;27;19935;-84
2024/04/18 10:46:09;;;;;;;;;;;8.70;99.90;;;;;;8605213;27;20313;-84
2024/04/18 10:50:10;;;;;;;;;;;9.00;99.90;;;;;;8597043;27;20002;-84
2024/04/18 10:54:11;;;;;;;;;;;8.80;99.90;;;;;;8572011;27;19965;-87
2024/04/18 10:58:12;;;;;;;;;;;8.30;99.90;;;;;;8623675;27;20410;-85
2024/04/18 11:02:13;;;;;;;;;;;8.60;99.90;;;;;;8605704;27;19935;-82
2024/04/18 11:06:14;;;;;;;;;;;8.40;99.90;;;;;;8568523;27;19941;-84
2024/04/18 11:10:14;;;;;;;;;;;8.30;99.90;;;;;;8603013;27;20004;-83
2024/04/18 11:14:15;;;;;;;;;;;8.70;99.90;;;;;;8603424;27;20288;-85
2024/04/18 11:18:16;;;;;;;;;;;9.00;99.90;;;;;;8603353;27;19936;-85
2024/04/18 11:22:16;;;;;;;;;;;9.70;99.90;;;;;;8578006;27;19928;-82
2024/04/18 11:26:20;;;;;;;;;;;11.30;99.90;;;;;;8603185;27;19957;-84
2024/04/18 11:30:22;;;;;;;;;;;11.80;99.90;;;;;;8599547;27;20020;-84
2024/04/18 11:34:23;;;;;;;;;;;10.80;99.90;;;;;;8570008;27;19999;-85
2024/04/18 11:38:24;;;;;;;;;;;11.70;99.90;;;;;;8617700;27;19928;-84
2024/04/18 11:42:24;;;;;;;;;;;12.50;99.90;;;;;;8610898;27;20393;-84
2024/04/18 11:46:26;;;;;;;;;;;12.90;99.90;;;;;;8594062;27;19936;-85
2024/04/18 11:50:26;;;;;;;;;;;14.60;99.90;;;;;;8572642;27;20026;-85
2024/04/18 11:54:27;;;;;;;;;;;17.10;99.90;;;;;;8590410;27;19928;-86
2024/04/18 11:58:27;;;;;;;;;;;15.60;99.90;;;;;;8570091;27;19939;-84
2024/04/18 12:02:28;;;;;;;;;;;13.60;99.90;;;;;;8605222;27;19928;-86
2024/04/18 12:06:28;;;;;;;;;;;12.20;99.90;;;;;;8613670;27;19960;-85
2024/04/18 12:10:29;;;;;;;;;;;10.20;99.90;;;;;;8591854;27;19929;-84
2024/04/18 12:14:29;;;;;;;;;;;8.90;99.90;;;;;;8615151;27;19998;-85
2024/04/18 12:18:30;;;;;;;;;;;8.40;99.90;;;;;;8598048;27;19928;-83
2024/04/18 12:22:39;;;;;;;;;;;8.70;99.90;;;;;;8602845;27;19928;-83
2024/04/18 12:26:40;;;;;;;;;;;8.90;99.90;;;;;;8582440;27;19936;-84
2024/04/18 12:30:43;;;;;;;;;;;9.70;99.90;;;;;;8592792;27;20378;-83
2024/04/18 12:34:44;;;;;;;;;;;10.40;99.90;;;;;;8582995;27;19935;-83
2024/04/18 12:38:44;;;;;;;;;;;13.00;99.90;;;;;;8607808;27;19928;-83
2024/04/18 12:42:45;;;;;;;;;;;16.20;99.90;;;;;;8606562;27;19989;-85
2024/04/18 12:46:46;;;;;;;;;;;16.30;99.90;;;;;;8579535;27;19929;-84
2024/04/18 12:50:46;;;;;;;;;;;15.10;99.90;;;;;;8596053;27;19935;-85
2024/04/18 12:54:47;;;;;;;;;;;13.60;99.90;;;;;;8614772;27;20308;-84
2024/04/18 12:58:47;;;;;;;;;;;12.70;99.90;;;;;;8607844;27;19935;-84
2024/04/18 13:02:48;;;;;;;;;;;13.10;99.90;;;;;;8607443;27;19996;-83
2024/04/18 13:06:48;;;;;;;;;;;13.20;99.90;;;;;;8589338;27;19928;-83
2024/04/18 13:10:49;;;;;;;;;;;13.40;99.90;;;;;;8585223;27;19928;-84
2024/04/18 13:14:49;;;;;;;;;;;13.50;99.90;;;;;;8593833;27;19936;-83
2024/04/18 13:18:50;;;;;;;;;;;12.90;99.90;;;;;;8608241;27;19928;-83
2024/04/18 13:22:51;;;;;;;;;;;11.60;99.90;;;;;;8587217;27;19936;-83
2024/04/18 13:26:52;;;;;;;;;;;10.30;99.90;;;;;;8580586;27;19939;-84
2024/04/18 13:30:52;;;;;;;;;;;9.20;99.90;;;;;;8604643;27;19929;-84
2024/04/18 13:34:53;;;;;;;;;;;8.00;99.90;;;;;;8624233;27;19928;-82
2024/04/18 13:38:53;;;;;;;;;;;7.20;99.90;;;;;;8637612;27;19927;-83
2024/04/18 13:42:55;;;;;;;;;;;7.50;99.90;;;;;;8616245;27;19935;-84
2024/04/18 13:46:56;;;;;;;;;;;7.70;99.90;;;;;;8621863;27;19967;-83
2024/04/18 13:50:56;;;;;;;;;;;8.50;99.90;;;;;;8618347;27;19935;-84
2024/04/18 13:54:57;;;;;;;;;;;9.10;99.90;;;;;;8603283;27;19935;-83
2024/04/18 13:58:57;;;;;;;;;;;9.40;99.90;;;;;;8599089;27;19976;-82
2024/04/18 14:02:58;;;;;;;;;;;9.30;99.90;;;;;;8614031;27;19944;-83
2024/04/18 14:06:58;;;;;;;;;;;9.30;99.90;;;;;;8611432;27;20262;-83
2024/04/18 14:10:58;;;;;;;;;;;9.80;99.90;;;;;;8576047;27;20381;-83
2024/04/18 14:15:16;;;;;;;;;;;10.00;99.90;;;;;;8615135;27;19928;-83
2024/04/18 14:19:17;;;;;;;;;;;9.90;99.90;;;;;;8580150;27;20008;-82
2024/04/18 14:23:17;;;;;;;;;;;10.90;99.90;;;;;;8611891;27;19928;-83
2024/04/18 14:27:18;;;;;;;;;;;11.40;99.90;;;;;;8611255;27;19929;-84
2024/04/18 14:31:18;;;;;;;;;;;10.60;99.90;;;;;;8561507;27;19937;-83
2024/04/18 14:35:19;;;;;;;;;;;10.00;99.90;;;;;;8582060;27;20476;-82
2024/04/18 14:39:19;;;;;;;;;;;10.30;99.90;;;;;;8598993;27;20378;-83
2024/04/18 14:43:20;;;;;;;;;;;10.70;99.90;;;;;;8578361;27;20437;-84
2024/04/18 14:47:20;;;;;;;;;;;11.10;99.90;;;;;;8609300;27;19936;-82
2024/04/18 14:51:21;;;;;;;;;;;11.20;99.90;;;;;;8581441;27;19944;-82
2024/04/18 14:55:27;;;;;;;;;;;13.70;99.90;;;;;;8593806;27;19936;-83
2024/04/18 14:59:27;;;;;;;;;;;15.70;99.90;;;;;;8594091;27;19964;-85
2024/04/18 15:03:28;;;;;;;;;;;14.70;99.90;;;;;;8593567;27;19933;-85
2024/04/18 15:07:28;;;;;;;;;;;12.90;99.90;;;;;;8597537;27;19928;-84
2024/04/18 15:11:30;;;;;;;;;;;11.00;99.90;;;;;;8565712;27;19938;-83
2024/04/18 15:15:31;;;;;;;;;;;10.20;99.90;;;;;;8606728;27;20367;-84
2024/04/18 15:19:31;;;;;;;;;;;11.10;99.90;;;;;;8587028;27;19936;-84
2024/04/18 15:23:31;;;;;;;;;;;10.30;99.90;;;;;;8566987;27;19949;-85
2024/04/18 15:27:32;;;;;;;;;;;9.40;99.90;;;;;;8562109;27;19984;-85
2024/04/18 15:31:32;;;;;;;;;;;9.10;99.90;;;;;;8615381;27;20270;-84
2024/04/18 15:35:33;;;;;;;;;;;8.80;99.90;;;;;;8614823;27;19928;-85
2024/04/18 15:39:33;;;;;;;;;;;9.80;99.90;;;;;;8602655;27;19951;-85
2024/04/18 15:43:34;;;;;;;;;;;10.80;99.90;;;;;;8575150;27;19928;-85
2024/04/18 15:47:34;;;;;;;;;;;10.50;99.90;;;;;;8596417;27;19935;-84
2024/04/18 15:51:35;;;;;;;;;;;9.90;99.90;;;;;;8602899;27;19928;-83
2024/04/18 15:55:35;;;;;;;;;;;9.60;99.90;;;;;;8569368;27;20015;-84
2024/04/18 15:59:36;;;;;;;;;;;9.90;99.90;;;;;;8597947;27;19929;-85
2024/04/18 16:03:36;;;;;;;;;;;9.70;99.90;;;;;;8610888;27;19956;-86
2024/04/18 16:07:37;;;;;;;;;;;9.80;99.90;;;;;;8600120;27;19935;-85
2024/04/18 16:11:38;;;;;;;;;;;10.00;99.90;;;;;;8575577;27;19928;-86
2024/04/18 16:15:39;;;;;;;;;;;9.90;99.90;;;;;;8577203;27;20370;-85
2024/04/18 16:19:39;;;;;;;;;;;10.10;99.90;;;;;;8577566;27;19935;-85
2024/04/18 16:23:40;;;;;;;;;;;10.10;99.90;;;;;;8601577;27;19928;-86
2024/04/18 16:27:40;;;;;;;;;;;10.20;99.90;;;;;;8603919;27;19928;-84
2024/04/18 16:31:41;;;;;;;;;;;10.30;99.90;;;;;;8582175;27;20381;-84
2024/04/18 16:35:41;;;;;;;;;;;9.70;99.90;;;;;;8560236;27;19929;-85
2024/04/18 16:39:42;;;;;;;;;;;9.70;99.90;;;;;;8595201;27;20007;-86
2024/04/18 16:43:44;;;;;;;;;;;9.90;99.90;;;;;;8565949;27;20027;-81
2024/04/18 16:47:45;;;;;;;;;;;9.10;99.90;;;;;;8611831;27;19935;-84
2024/04/18 16:51:48;;;;;;;;;;;8.00;99.90;;;;;;8578139;27;19941;-87
2024/04/18 16:55:48;;;;;;;;;;;7.60;99.90;;;;;;8605790;27;19936;-83
2024/04/18 16:59:49;;;;;;;;;;;7.30;99.90;;;;;;8576259;27;19928;-82
2024/04/18 17:03:49;;;;;;;;;;;7.10;99.90;;;;;;8575507;27;20290;-85
2024/04/18 17:07:50;;;;;;;;;;;6.80;99.90;;;;;;8595048;27;20265;-83
2024/04/18 17:11:51;;;;;;;;;;;6.70;99.90;;;;;;8563151;27;19928;-85
2024/04/18 17:15:51;;;;;;;;;;;6.60;99.90;;;;;;8582521;27;19932;-85
2024/04/18 17:19:52;;;;;;;;;;;6.60;99.90;;;;;;8606740;27;20000;-85
2024/04/18 17:23:54;;;;;;;;;;;6.70;99.90;;;;;;8602459;27;19928;-84
2024/04/18 17:27:55;;;;;;;;;;;6.60;99.90;;;;;;8596349;27;19935;-85
2024/04/18 17:31:55;;;;;;;;;;;6.60;99.90;;;;;;8605954;27;19928;-85
2024/04/18 17:35:56;;;;;;;;;;;6.70;99.90;;;;;;8593858;27;19936;-85
2024/04/18 17:39:57;;;;;;;;;;;6.50;99.90;;;;;;8607108;27;19998;-85
2024/04/18 17:43:57;;;;;;;;;;;6.50;99.90;;;;;;8572338;27;19928;-84
2024/04/18 17:47:58;;;;;;;;;;;6.60;99.90;;;;;;8567100;27;19935;-83
2024/04/18 17:51:58;;;;;;;;;;;6.50;99.90;;;;;;8599857;27;19956;-82
2024/04/18 17:55:59;;;;;;;;;;;6.40;99.90;;;;;;8584818;27;19928;-84
2024/04/18 17:59:59;;;;;;;;;;;5.90;99.90;;;;;;8576808;27;20265;-83
2024/04/18 18:04:00;;;;;;;;;;;5.70;99.90;;;;;;8577150;27;20000;-83
2024/04/18 18:08:00;;;;;;;;;;;5.80;99.90;;;;;;8592170;27;19991;-83
2024/04/18 18:12:03;;;;;;;;;;;6.00;99.90;;;;;;8585511;27;20269;-83
2024/04/18 18:16:07;;;;;;;;;;;6.20;99.90;;;;;;8578912;27;19998;-84
2024/04/18 18:20:08;;;;;;;;;;;6.10;99.90;;;;;;8576384;27;19935;-83
2024/04/18 18:24:08;;;;;;;;;;;6.40;99.90;;;;;;8585225;27;19935;-84
2024/04/18 18:28:08;;;;;;;;;;;6.20;99.90;;;;;;8572597;27;20000;-81
2024/04/18 18:32:12;;;;;;;;;;;5.90;99.90;;;;;;8560305;27;19928;-84
2024/04/18 18:36:13;;;;;;;;;;;5.40;99.90;;;;;;8567225;27;19948;-83
2024/04/18 18:40:13;;;;;;;;;;;4.80;99.90;;;;;;8560072;27;19928;-83
2024/04/18 18:44:15;;;;;;;;;;;4.60;99.90;;;;;;8576004;27;19927;-84
2024/04/18 18:48:15;;;;;;;;;;;4.30;99.90;;;;;;8571580;27;19939;-85
2024/04/18 18:52:18;;;;;;;;;;;4.20;99.90;;;;;;8619266;27;19932;-84
2024/04/18 18:56:18;;;;;;;;;;;4.10;99.90;;;;;;8596224;27;19928;-82
2024/04/18 19:00:19;;;;;;;;;;;4.10;99.90;;;;;;8579206;27;19936;-84
2024/04/18 19:04:23;;;;;;;;;;;4.20;99.90;;;;;;8566814;27;19937;-85
2024/04/18 19:08:23;;;;;;;;;;;4.30;99.90;;;;;;8586398;27;19935;-83
2024/04/18 19:12:24;;;;;;;;;;;4.10;99.90;;;;;;8574091;27;19928;-82
2024/04/18 19:16:25;;;;;;;;;;;3.90;99.90;;;;;;8572088;27;19968;-85
2024/04/18 19:20:25;;;;;;;;;;;3.70;99.90;;;;;;8570449;27;19936;-83
2024/04/18 19:24:26;;;;;;;;;;;3.60;99.90;;;;;;8575506;27;20045;-82
2024/04/18 19:28:27;;;;;;;;;;;3.50;99.90;;;;;;8603128;27;19934;-84
2024/04/18 19:32:28;;;;;;;;;;;3.70;99.90;;;;;;8595624;27;19940;-86
2024/04/18 19:36:29;;;;;;;;;;;3.50;99.90;;;;;;8579206;27;19952;-86
2024/04/18 19:40:29;;;;;;;;;;;3.40;99.90;;;;;;8578342;27;19928;-86
2024/04/18 19:44:30;;;;;;;;;;;3.20;99.90;;;;;;8572757;27;20400;-85
2024/04/18 19:48:34;;;;;;;;;;;3.00;99.90;;;;;;8582040;27;19997;-86
2024/04/18 19:52:35;;;;;;;;;;;3.10;99.90;;;;;;8580725;27;19935;-85
2024/04/18 19:56:38;;;;;;;;;;;2.80;99.90;;;;;;8571520;27;19936;-86
2024/04/18 20:00:42;;;;;;;;;;;2.50;99.90;;;;;;8572904;27;20287;-85
2024/04/18 20:04:45;;;;;;;;;;;2.40;99.90;;;;;;8578276;27;20054;-86
2024/04/18 20:08:54;;;;;;;;;;;2.30;99.90;;;;;;8574576;27;19928;-85
2024/04/18 20:12:55;;;;;;;;;;;2.10;99.90;;;;;;8589360;27;19940;-85
2024/04/18 20:16:55;;;;;;;;;;;2.10;99.90;;;;;;8592334;27;20000;-85
2024/04/18 20:20:56;;;;;;;;;;;2.00;99.90;;;;;;8585175;27;20269;-86
2024/04/18 20:24:56;;;;;;;;;;;2.10;99.90;;;;;;8565212;27;19936;-87
2024/04/18 20:28:59;;;;;;;;;;;2.30;99.90;;;;;;8569085;27;19928;-86
2024/04/18 20:33:12;;;;;;;;;;;2.50;99.90;;;;;;8581240;27;20307;-86
2024/04/18 20:37:19;;;;;;;;;;;2.60;99.90;;;;;;8601456;27;19939;-86
2024/04/18 20:41:25;;;;;;;;;;;2.60;99.90;;;;;;8561123;27;19960;-86
2024/04/18 20:45:25;;;;;;;;;;;2.60;99.90;;;;;;8581058;27;19928;-85
2024/04/18 20:50:07;;;;;;;;;;;;;;;;;;;;;
2024/04/18 20:54:18;;;;;;;;;;;2.50;99.90;;;;;;8563523;27;19928;-86
2024/04/18 20:58:22;;;;;;;;;;;2.70;99.90;;;;;;8577789;27;19939;-85
2024/04/18 21:02:26;;;;;;;;;;;2.70;99.90;;;;;;8578050;27;19943;-86
2024/04/18 21:06:32;;;;;;;;;;;2.70;99.90;;;;;;8566785;27;19939;-86
2024/04/18 21:10:33;;;;;;;;;;;2.90;99.90;;;;;;8594612;27;19935;-85
2024/04/18 21:14:34;;;;;;;;;;;3.10;99.90;;;;;;8579114;27;19928;-88
2024/04/18 21:18:37;;;;;;;;;;;3.40;99.90;;;;;;8593770;27;20711;-88
2024/04/18 21:22:38;;;;;;;;;;;3.30;99.90;;;;;;8557220;27;19935;-86
2024/04/18 21:26:38;;;;;;;;;;;3.20;99.90;;;;;;8575565;27;20269;-88
2024/04/18 21:30:39;;;;;;;;;;;3.10;99.90;;;;;;8559002;27;19967;-88
2024/04/18 21:34:40;;;;;;;;;;;2.90;99.90;;;;;;8575064;27;19943;-88
2024/04/18 21:38:42;;;;;;;;;;;2.90;99.90;;;;;;8556122;27;20270;-88
2024/04/18 21:42:42;;;;;;;;;;;3.00;99.90;;;;;;8567854;27;19929;-89
2024/04/18 21:46:43;;;;;;;;;;;2.90;99.90;;;;;;8550424;27;19928;-88
2024/04/18 21:50:43;;;;;;;;;;;2.80;99.90;;;;;;8565510;27;19959;-89
2024/04/18 21:54:47;;;;;;;;;;;2.80;99.90;;;;;;8574558;27;19934;-87
2024/04/18 21:58:52;;;;;;;;;;;2.70;99.90;;;;;;8569036;27;19936;-88
2024/04/18 22:02:52;;;;;;;;;;;2.70;99.90;;;;;;8582528;27;19928;-90
2024/04/18 22:06:54;;;;;;;;;;;2.60;99.90;;;;;;8560041;27;19933;-89
2024/04/18 22:10:55;;;;;;;;;;;2.40;99.90;;;;;;8565794;27;20021;-88
2024/04/18 22:14:59;;;;;;;;;;;2.30;99.90;;;;;;8575215;27;19928;-88
2024/04/18 22:18:59;;;;;;;;;;;2.20;99.90;;;;;;8580628;27;20370;-87
2024/04/18 22:23:03;;;;;;;;;;;2.40;99.90;;;;;;8575300;27;19937;-87
2024/04/18 22:27:04;;;;;;;;;;;2.30;99.90;;;;;;8566021;27;19935;-87
2024/04/18 22:31:10;;;;;;;;;;;1.90;99.90;;;;;;8554592;27;19941;-87
2024/04/18 22:35:15;;;;;;;;;;;1.90;99.90;;;;;;8574334;27;19927;-87
2024/04/18 22:39:15;;;;;;;;;;;1.90;99.90;;;;;;8580877;27;19943;-86
2024/04/18 22:43:22;;;;;;;;;;;2.00;99.90;;;;;;8563417;27;19928;-87
2024/04/18 22:52:02;;;;;;;;;;;1.90;99.90;;;;;;8582408;27;19928;-88
2024/04/18 23:06:20;;;;;;;;;;;2.40;99.90;;;;;;8531789;27;19929;-86
2024/04/18 23:10:24;;;;;;;;;;;2.50;99.90;;;;;;8451662;27;19929;-87
2024/04/18 23:28:20;;;;;;;;;;;1.90;99.90;;;;;;8592647;27;19930;-86
2024/04/18 23:32:26;;;;;;;;;;;2.10;99.90;;;;;;8572112;27;19928;-86
2024/04/18 23:36:39;;;;;;;;;;;2.00;99.90;;;;;;8566564;27;19960;-86
2024/04/18 23:40:48;;;;;;;;;;;2.10;99.90;;;;;;8547857;27;19936;-86
2024/04/18 23:45:03;;;;;;;;;;;2.00;99.90;;;;;;8554727;27;20378;-86
2024/04/18 23:49:15;;;;;;;;;;;2.00;99.90;;;;;;8571820;27;19921;-85
2024/04/18 23:53:24;;;;;;;;;;;2.10;99.90;;;;;;8613554;27;20527;-86
2024/04/18 23:57:33;;;;;;;;;;;2.20;99.90;;;;;;8600547;27;19928;-86
